Time;durP1;ratioP1;P1;durP2;ratioP2;P2;SDS_P1;SDS_P2;PMS_P1;PMS_P2;Temp;Humidity;BMP_temperature;BMP_pressure;BME280_temperature;BME280_humidity;BME280_pressure;Samples;Min_cycle;Max_cycle;Signal;HPM_P1;HPM_P2
2022/06/13 00:00:13;;;;;;;3.42;1.90;;;21.60;93.30;;;;;;5028089;28;20032;-76
2022/06/13 00:02:39;;;;;;;3.63;1.98;;;21.70;93.20;;;;;;5029808;28;20112;-76
2022/06/13 00:05:07;;;;;;;3.85;2.13;;;21.70;93.20;;;;;;5029746;28;20124;-76
2022/06/13 00:07:33;;;;;;;3.80;2.50;;;21.70;93.30;;;;;;5033958;28;20037;-75
2022/06/13 00:09:59;;;;;;;7.05;2.58;;;21.40;93.90;;;;;;5032211;28;20086;-75
2022/06/13 00:12:26;;;;;;;4.05;2.10;;;21.40;94.00;;;;;;5034002;28;20048;-76
2022/06/13 00:14:52;;;;;;;3.47;1.92;;;21.30;94.10;;;;;;5029750;28;20044;-76
2022/06/13 00:17:18;;;;;;;3.45;2.05;;;21.10;94.50;;;;;;5027137;28;20029;-75
2022/06/13 00:19:44;;;;;;;3.60;2.20;;;21.10;94.60;;;;;;5026702;28;20055;-76
2022/06/13 00:22:09;;;;;;;4.50;2.42;;;21.10;94.60;;;;;;5032408;28;20090;-75
2022/06/13 00:24:36;;;;;;;4.57;2.42;;;21.20;94.50;;;;;;5025852;28;20036;-76
2022/06/13 00:27:02;;;;;;;5.10;2.28;;;21.30;94.30;;;;;;5031774;28;20041;-76
2022/06/13 00:29:28;;;;;;;4.88;2.33;;;21.40;94.30;;;;;;5033189;28;20083;-75
2022/06/13 00:31:54;;;;;;;4.22;2.45;;;21.30;94.50;;;;;;5026821;28;20048;-76
2022/06/13 00:34:19;;;;;;;4.05;2.25;;;21.00;94.80;;;;;;5032049;28;20539;-76
2022/06/13 00:36:45;;;;;;;6.43;2.88;;;21.00;95.10;;;;;;5030069;28;20105;-75
2022/06/13 00:39:11;;;;;;;3.38;2.13;;;21.00;95.20;;;;;;5022630;28;20045;-75
2022/06/13 00:41:40;;;;;;;5.75;2.38;;;21.00;95.20;;;;;;5030679;28;20018;-76
2022/06/13 00:44:23;;;;;;;5.55;2.50;;;21.00;95.30;;;;;;5032475;28;20095;-76
2022/06/13 00:46:50;;;;;;;4.73;2.40;;;20.90;95.30;;;;;;5030965;28;20030;-75
2022/06/13 00:49:23;;;;;;;3.85;2.65;;;21.00;95.70;;;;;;5023381;28;20116;-75
2022/06/13 00:52:09;;;;;;;7.05;3.00;;;21.00;95.60;;;;;;5030019;28;20152;-75
2022/06/13 00:54:37;;;;;;;7.35;2.80;;;21.00;95.60;;;;;;5024816;28;20512;-75
2022/06/13 00:57:06;;;;;;;4.20;2.42;;;21.10;95.70;;;;;;5029014;28;20026;-75
2022/06/13 00:59:36;;;;;;;4.07;2.33;;;21.00;95.50;;;;;;5032072;28;20491;-75
2022/06/13 01:02:03;;;;;;;4.65;2.20;;;21.10;95.60;;;;;;5026894;28;20104;-75
2022/06/13 01:04:28;;;;;;;6.88;2.60;;;21.00;95.50;;;;;;5031629;28;20041;-76
2022/06/13 01:06:56;;;;;;;3.58;2.28;;;21.20;95.30;;;;;;5028635;28;20029;-76
2022/06/13 01:11:16;;;;;;;5.50;2.85;;;21.10;95.40;;;;;;5028619;28;20075;-76
2022/06/13 01:12:09;;;;;;;5.00;2.50;;;21.00;95.60;;;;;;5027685;28;20071;-75
2022/06/13 01:14:49;;;;;;;4.53;2.22;;;20.90;95.80;;;;;;5024286;28;20029;-75
2022/06/13 01:17:40;;;;;;;6.63;3.28;;;20.90;95.90;;;;;;5030260;28;20056;-76
2022/06/13 01:20:14;;;;;;;3.80;2.42;;;21.00;95.90;;;;;;5031696;28;20040;-75
2022/06/13 01:23:04;;;;;;;4.88;2.83;;;21.00;95.90;;;;;;5025446;28;20040;-76
2022/06/13 01:25:42;;;;;;;4.03;2.42;;;21.00;96.10;;;;;;5026938;28;20037;-76
2022/06/13 01:28:34;;;;;;;5.32;2.40;;;21.00;95.90;;;;;;5024279;28;20030;-75
2022/06/13 01:31:02;;;;;;;4.90;2.22;;;20.90;95.90;;;;;;5031769;28;20048;-75
2022/06/13 01:33:36;;;;;;;5.68;2.65;;;20.80;96.00;;;;;;5019608;28;20025;-76
2022/06/13 01:36:28;;;;;;;4.00;2.22;;;20.80;96.10;;;;;;5029826;28;20061;-76
2022/06/13 01:39:06;;;;;;;4.65;2.60;;;20.70;96.30;;;;;;5032020;28;20100;-75
2022/06/13 01:41:45;;;;;;;5.95;2.40;;;20.70;96.30;;;;;;5029476;28;20416;-75
2022/06/13 01:44:17;;;;;;;7.47;2.85;;;20.70;96.30;;;;;;5025802;28;20498;-75
2022/06/13 01:47:21;;;;;;;4.53;2.63;;;20.70;96.40;;;;;;5030229;28;20373;-75
2022/06/13 01:50:11;;;;;;;5.38;2.60;;;20.80;96.40;;;;;;5024613;28;20370;-75
2022/06/13 01:52:53;;;;;;;6.18;2.50;;;20.80;96.30;;;;;;5027524;28;20056;-76
2022/06/13 01:55:56;;;;;;;4.43;2.70;;;20.90;96.20;;;;;;5027027;28;20037;-75
2022/06/13 01:58:33;;;;;;;4.53;2.78;;;20.90;96.30;;;;;;5031425;28;20395;-76
2022/06/13 02:01:10;;;;;;;4.35;2.63;;;20.90;96.30;;;;;;5027574;28;20025;-75
2022/06/13 02:03:44;;;;;;;5.10;2.50;;;20.90;96.50;;;;;;5017414;28;20091;-75
2022/06/13 02:06:18;;;;;;;5.80;2.95;;;20.90;96.90;;;;;;5027726;28;20550;-76
2022/06/13 02:08:50;;;;;;;6.00;2.70;;;20.60;97.20;;;;;;5029620;28;20033;-76
2022/06/13 02:11:31;;;;;;;4.53;2.95;;;20.50;97.00;;;;;;5021190;28;20048;-76
2022/06/13 02:14:12;;;;;;;4.53;2.80;;;20.60;97.10;;;;;;5028946;28;20121;-76
2022/06/13 02:16:54;;;;;;;5.50;2.47;;;20.50;96.90;;;;;;5025564;28;20040;-75
2022/06/13 02:19:40;;;;;;;5.18;2.80;;;20.70;96.70;;;;;;5024846;28;20417;-76
2022/06/13 02:22:22;;;;;;;4.07;2.25;;;20.80;96.30;;;;;;5028351;28;20498;-76
2022/06/13 02:25:11;;;;;;;4.30;2.80;;;20.80;96.40;;;;;;5025898;28;20041;-76
2022/06/13 02:27:38;;;;;;;4.38;2.50;;;20.80;96.60;;;;;;5031673;28;20491;-76
2022/06/13 02:30:08;;;;;;;4.38;2.97;;;20.80;96.50;;;;;;5023038;28;20506;-76
2022/06/13 02:32:34;;;;;;;5.57;2.42;;;20.90;96.50;;;;;;5027943;28;20032;-76
2022/06/13 02:35:10;;;;;;;5.07;2.65;;;20.90;96.40;;;;;;5023476;28;20022;-76
2022/06/13 02:37:59;;;;;;;6.57;2.65;;;20.90;96.40;;;;;;5022616;28;20034;-76
2022/06/13 02:40:45;;;;;;;6.00;2.35;;;20.90;96.80;;;;;;5029364;28;20074;-76
2022/06/13 02:43:23;;;;;;;4.93;2.80;;;20.80;97.10;;;;;;5024051;28;20087;-76
2022/06/13 02:45:57;;;;;;;5.63;2.95;;;20.80;97.20;;;;;;5029766;28;20026;-75
2022/06/13 02:48:46;;;;;;;5.28;2.80;;;20.70;97.30;;;;;;5029579;28;20025;-75
2022/06/13 02:51:33;;;;;;;5.70;2.60;;;20.70;97.30;;;;;;5017010;28;20058;-76
2022/06/13 02:54:21;;;;;;;4.70;2.70;;;20.80;97.10;;;;;;5024764;28;20546;-76
2022/06/13 02:57:32;;;;;;;5.18;2.42;;;20.90;97.10;;;;;;5029465;28;20121;-75
2022/06/13 03:00:17;;;;;;;5.40;2.70;;;20.90;97.20;;;;;;5020879;28;20091;-76
2022/06/13 03:02:52;;;;;;;6.82;2.78;;;21.00;97.00;;;;;;5026244;28;20435;-76
2022/06/13 03:05:28;;;;;;;5.60;2.80;;;20.90;97.10;;;;;;5013717;28;20496;-76
2022/06/13 03:08:19;;;;;;;4.28;3.00;;;20.90;97.10;;;;;;5023029;28;20054;-76
2022/06/13 03:11:08;;;;;;;5.25;2.90;;;20.90;97.40;;;;;;5016482;28;20433;-76
2022/06/13 03:13:40;;;;;;;4.25;2.78;;;20.80;97.80;;;;;;5017915;28;20045;-76
2022/06/13 03:16:29;;;;;;;5.60;2.95;;;20.70;98.10;;;;;;5017680;28;20040;-76
2022/06/13 03:19:02;;;;;;;4.93;2.97;;;20.70;97.60;;;;;;5013663;28;20106;-77
2022/06/13 03:21:37;;;;;;;5.53;2.95;;;20.70;98.00;;;;;;5024700;28;20017;-75
2022/06/13 03:24:17;;;;;;;4.85;2.83;;;20.70;98.30;;;;;;5028846;28;20041;-76
2022/06/13 03:26:52;;;;;;;4.15;2.50;;;20.70;98.30;;;;;;5025976;28;20087;-77
2022/06/13 03:29:55;;;;;;;4.65;3.15;;;20.60;98.50;;;;;;5030671;28;20030;-76
2022/06/13 03:32:26;;;;;;;6.53;2.80;;;20.80;98.20;;;;;;5028395;28;20040;-75
2022/06/13 03:34:58;;;;;;;5.25;2.70;;;20.90;98.20;;;;;;5027898;28;20455;-76
2022/06/13 03:37:32;;;;;;;5.25;2.80;;;20.90;97.90;;;;;;5024807;28;20041;-76
2022/06/13 03:39:58;;;;;;;;;;;20.90;97.80;;;;;;5028302;28;20025;-76
2022/06/13 03:42:28;;;;;;;6.45;3.03;;;21.00;97.90;;;;;;5022497;28;19916;-76
2022/06/13 03:44:59;;;;;;;5.70;2.70;;;21.00;98.00;;;;;;5025367;28;20125;-76
2022/06/13 03:47:37;;;;;;;3.83;2.53;;;21.10;98.40;;;;;;5027704;28;20372;-75
2022/06/13 03:50:18;;;;;;;7.32;3.65;;;21.00;98.40;;;;;;5017456;28;20851;-76
2022/06/13 03:52:49;;;;;;;4.88;3.25;;;20.90;99.10;;;;;;5027610;28;20038;-76
2022/06/13 03:55:21;;;;;;;3.88;2.70;;;20.70;99.60;;;;;;5019190;28;20041;-76
2022/06/13 03:58:03;;;;;;;5.50;3.25;;;20.70;99.10;;;;;;5021988;28;20132;-76
2022/06/13 04:00:33;;;;;;;5.43;3.03;;;20.80;98.90;;;;;;5022126;28;20028;-75
2022/06/13 04:03:01;;;;;;;4.63;2.88;;;20.90;99.40;;;;;;5028679;28;20057;-76
2022/06/13 04:05:35;;;;;;;5.03;3.30;;;20.80;99.50;;;;;;5024232;28;20120;-76
2022/06/13 04:08:02;;;;;;;8.57;3.33;;;20.80;98.60;;;;;;5024355;28;20034;-76
2022/06/13 04:10:32;;;;;;;7.55;3.60;;;20.90;98.60;;;;;;5025219;28;20042;-76
2022/06/13 04:13:20;;;;;;;8.40;3.58;;;20.90;98.60;;;;;;5025843;28;20607;-76
2022/06/13 04:15:53;;;;;;;5.75;3.50;;;21.00;98.50;;;;;;5053509;28;20040;-76
2022/06/13 04:18:35;;;;;;;4.50;3.17;;;21.10;98.80;;;;;;5014028;28;20036;-76
2022/06/13 04:21:27;;;;;;;4.60;3.63;;;21.00;99.10;;;;;;5026034;28;20026;-76
2022/06/13 04:24:28;;;;;;;6.00;3.80;;;20.90;98.70;;;;;;5026779;28;20116;-76
2022/06/13 04:27:15;;;;;;;6.50;3.63;;;20.90;98.70;;;;;;5027637;28;20033;-76
2022/06/13 04:29:48;;;;;;;7.15;3.17;;;21.00;98.70;;;;;;5023530;28;20033;-75
2022/06/13 04:32:20;;;;;;;8.07;3.63;;;20.90;99.00;;;;;;5025914;28;20046;-76
2022/06/13 04:34:49;;;;;;;6.50;3.72;;;20.90;99.00;;;;;;5021930;28;20180;-76
2022/06/13 04:37:18;;;;;;;6.80;4.10;;;21.00;99.80;;;;;;5028165;28;20033;-76
2022/06/13 04:39:47;;;;;;;7.78;4.15;;;20.90;99.90;;;;;;5020602;28;20036;-76
2022/06/13 04:42:15;;;;;;;5.55;3.35;;;20.70;99.90;;;;;;5024970;28;20029;-76
2022/06/13 04:44:42;;;;;;;4.93;3.38;;;20.60;99.90;;;;;;5021319;28;20030;-75
2022/06/13 04:47:13;;;;;;;8.55;3.80;;;20.30;99.90;;;;;;5027886;28;20037;-76
2022/06/13 04:49:50;;;;;;;6.32;3.72;;;20.30;99.90;;;;;;5018306;28;20045;-75
2022/06/13 04:52:19;;;;;;;6.32;3.67;;;19.90;99.90;;;;;;5025095;28;20100;-76
2022/06/13 04:54:59;;;;;;;5.85;3.80;;;20.10;99.90;;;;;;5014397;28;20129;-75
2022/06/13 04:57:26;;;;;;;6.30;3.90;;;20.20;99.90;;;;;;5022606;28;20114;-75
2022/06/13 04:59:52;;;;;;;4.85;3.60;;;20.20;99.90;;;;;;5023431;28;20835;-75
2022/06/13 05:02:23;;;;;;;6.13;3.58;;;20.20;99.90;;;;;;5027781;28;20039;-75
2022/06/13 05:04:49;;;;;;;6.47;3.78;;;20.40;99.90;;;;;;5024540;28;20144;-75
2022/06/13 05:07:18;;;;;;;5.32;3.85;;;20.50;99.90;;;;;;5023431;28;20558;-76
2022/06/13 05:09:52;;;;;;;5.95;4.25;;;20.60;99.90;;;;;;5013421;28;20419;-76
2022/06/13 05:12:30;;;;;;;4.40;3.10;;;20.70;99.90;;;;;;5022274;28;20025;-76
2022/06/13 05:15:19;;;;;;;5.10;3.90;;;20.70;99.90;;;;;;5027701;28;20039;-76
2022/06/13 05:18:16;;;;;;;5.30;3.65;;;20.60;99.90;;;;;;5019626;28;20060;-76
2022/06/13 05:20:45;;;;;;;5.90;3.58;;;20.60;99.90;;;;;;5023410;28;20032;-76
2022/06/13 05:23:41;;;;;;;4.97;3.45;;;20.70;99.90;;;;;;5027993;28;20112;-75
2022/06/13 05:26:07;;;;;;;5.40;3.90;;;20.70;99.90;;;;;;5026174;28;20037;-75
2022/06/13 05:28:35;;;;;;;5.82;3.00;;;20.90;99.90;;;;;;5030936;28;20080;-76
2022/06/13 05:31:10;;;;;;;9.18;3.95;;;21.10;99.90;;;;;;5024751;28;20049;-75
2022/06/13 05:33:42;;;;;;;18.75;5.22;;;21.10;99.90;;;;;;5018749;28;20037;-74
2022/06/13 05:36:13;;;;;;;6.85;3.67;;;21.00;99.90;;;;;;5025311;28;20039;-73
2022/06/13 05:38:47;;;;;;;10.48;3.60;;;21.00;99.90;;;;;;5030366;28;20033;-73
2022/06/13 05:41:13;;;;;;;7.07;3.42;;;21.00;99.90;;;;;;5016340;28;20114;-73
2022/06/13 05:43:38;;;;;;;8.00;3.33;;;21.00;99.90;;;;;;5022250;28;20052;-74
2022/06/13 05:46:06;;;;;;;9.25;4.20;;;21.00;99.90;;;;;;5020345;28;20033;-74
2022/06/13 05:48:32;;;;;;;8.77;3.53;;;20.80;99.90;;;;;;5022660;28;20031;-74
2022/06/13 05:50:58;;;;;;;11.80;4.40;;;20.70;99.90;;;;;;5024136;28;20055;-74
2022/06/13 05:53:26;;;;;;;7.00;3.58;;;20.60;99.90;;;;;;5023881;28;20112;-75
2022/06/13 05:55:57;;;;;;;5.10;3.25;;;20.60;99.90;;;;;;5020859;28;20067;-74
2022/06/13 05:58:24;;;;;;;7.32;3.45;;;20.60;99.90;;;;;;5017842;28;20057;-74
2022/06/13 06:00:55;;;;;;;7.38;3.97;;;20.60;99.90;;;;;;5023907;28;20029;-74
2022/06/13 06:03:21;;;;;;;7.10;3.30;;;20.80;99.90;;;;;;5023519;28;20068;-74
2022/06/13 06:05:47;;;;;;;5.20;3.40;;;21.20;99.90;;;;;;5017927;28;20468;-74
2022/06/13 06:08:25;;;;;;;5.70;3.67;;;21.50;99.90;;;;;;5022705;28;20033;-74
2022/06/13 06:10:52;;;;;;;9.10;4.78;;;21.50;99.90;;;;;;5023953;28;20037;-74
2022/06/13 06:13:19;;;;;;;5.43;3.70;;;21.60;99.90;;;;;;5021711;28;20083;-74
2022/06/13 06:15:46;;;;;;;13.18;5.00;;;21.70;99.90;;;;;;5017010;28;20040;-73
2022/06/13 06:18:12;;;;;;;8.65;3.92;;;21.80;99.90;;;;;;5023945;28;20021;-75
2022/06/13 06:20:39;;;;;;;30.63;4.97;;;21.90;99.90;;;;;;5023759;28;20041;-74
2022/06/13 06:23:05;;;;;;;15.88;4.53;;;21.80;99.90;;;;;;5021941;28;20033;-75
2022/06/13 06:25:31;;;;;;;9.93;4.65;;;21.70;99.90;;;;;;5022972;28;20033;-74
2022/06/13 06:27:57;;;;;;;4.43;3.22;;;21.60;99.90;;;;;;5023113;28;20025;-74
2022/06/13 06:30:27;;;;;;;7.32;3.92;;;21.60;99.90;;;;;;5023032;28;20579;-73
2022/06/13 06:32:56;;;;;;;5.28;3.85;;;21.80;99.90;;;;;;5017547;28;20029;-74
2022/06/13 06:35:24;;;;;;;5.80;4.05;;;21.80;99.90;;;;;;5018942;28;20030;-74
2022/06/13 06:37:52;;;;;;;6.10;4.05;;;21.90;99.90;;;;;;5024000;28;20571;-74
2022/06/13 06:40:20;;;;;;;4.75;3.45;;;22.00;99.90;;;;;;5023161;28;20037;-74
2022/06/13 06:42:46;;;;;;;8.65;4.13;;;22.00;99.30;;;;;;5021512;28;20120;-74
2022/06/13 06:45:13;;;;;;;5.72;3.70;;;21.80;99.90;;;;;;5024089;28;20117;-74
2022/06/13 06:47:41;;;;;;;5.32;4.05;;;21.70;99.90;;;;;;5024287;28;20046;-74
2022/06/13 06:50:16;;;;;;;6.45;4.07;;;21.70;99.90;;;;;;5006594;28;20113;-73
2022/06/13 06:52:42;;;;;;;7.25;4.78;;;21.90;99.90;;;;;;5023745;28;20452;-73
2022/06/13 07:00:47;;;;;;;10.35;4.65;;;22.30;99.90;;;;;;5026505;28;21027;-73
2022/06/13 07:03:13;;;;;;;7.40;4.40;;;22.40;99.90;;;;;;5026531;28;20037;-73
2022/06/13 07:05:39;;;;;;;6.50;4.60;;;22.50;99.90;;;;;;5026377;28;20104;-74
2022/06/13 07:08:05;;;;;;;7.68;4.55;;;22.70;99.90;;;;;;5017906;28;20163;-74
2022/06/13 07:10:30;;;;;;;8.02;4.00;;;23.00;99.50;;;;;;5026950;28;20045;-74
2022/06/13 07:12:56;;;;;;;5.90;3.90;;;23.20;99.00;;;;;;5027225;28;20037;-73
2022/06/13 07:15:22;;;;;;;8.48;4.20;;;23.60;99.40;;;;;;5021013;28;20037;-73
2022/06/13 07:17:48;;;;;;;5.80;3.75;;;23.90;98.50;;;;;;5026823;28;20079;-74
2022/06/13 07:20:14;;;;;;;5.13;3.55;;;24.10;97.60;;;;;;5027330;28;20107;-73
2022/06/13 07:22:52;;;;;;;7.18;4.07;;;23.90;97.30;;;;;;5028005;28;20727;-74
2022/06/13 07:25:24;;;;;;;6.88;4.30;;;24.10;97.70;;;;;;5023972;28;20036;-73
2022/06/13 07:27:50;;;;;;;7.82;4.13;;;24.00;98.20;;;;;;5027130;28;20189;-74
2022/06/13 07:30:18;;;;;;;8.60;4.10;;;24.40;98.00;;;;;;5020517;28;20061;-74
2022/06/13 07:32:44;;;;;;;5.72;3.53;;;25.10;96.90;;;;;;5024035;28;20030;-75
2022/06/13 07:35:12;;;;;;;4.78;3.70;;;25.80;96.50;;;;;;5026323;28;20033;-74
2022/06/13 07:38:20;;;;;;;6.60;4.32;;;26.30;95.00;;;;;;5026502;28;20033;-74
2022/06/13 07:40:27;;;;;;;8.60;4.15;;;27.00;93.70;;;;;;5021066;28;20405;-74
2022/06/13 07:42:57;;;;;;;7.80;3.85;;;27.50;93.20;;;;;;5024668;28;20055;-73
2022/06/13 07:45:29;;;;;;;6.85;4.22;;;27.30;92.60;;;;;;5025505;28;20546;-73
2022/06/13 07:47:55;;;;;;;5.67;4.03;;;27.30;92.50;;;;;;5026927;28;20117;-73
2022/06/13 07:50:24;;;;;;;7.63;3.92;;;27.00;92.90;;;;;;5026748;28;20378;-73
2022/06/13 07:52:51;;;;;;;7.07;4.13;;;26.50;93.10;;;;;;5024674;28;20053;-73
2022/06/13 07:55:18;;;;;;;5.68;3.72;;;26.50;93.50;;;;;;5023359;28;20038;-74
2022/06/13 07:57:45;;;;;;;6.20;3.90;;;26.20;94.60;;;;;;5025495;28;20134;-73
2022/06/13 08:00:25;;;;;;;6.65;3.72;;;26.20;94.10;;;;;;5026255;28;20030;-73
2022/06/13 08:02:51;;;;;;;5.13;3.55;;;25.90;94.70;;;;;;5026747;28;20025;-74
2022/06/13 08:05:18;;;;;;;6.47;3.42;;;26.00;94.40;;;;;;5024000;28;20364;-73
2022/06/13 08:07:43;;;;;;;6.35;3.97;;;26.10;94.80;;;;;;5024445;28;20041;-73
2022/06/13 08:10:10;;;;;;;6.60;4.18;;;26.10;94.40;;;;;;5025981;28;20038;-73
2022/06/13 08:12:36;;;;;;;4.72;3.15;;;25.80;94.50;;;;;;5026144;28;20053;-74
2022/06/13 08:15:02;;;;;;;5.57;3.72;;;26.10;94.40;;;;;;5023904;28;20057;-74
2022/06/13 08:17:28;;;;;;;4.93;3.40;;;26.20;94.40;;;;;;5024945;28;20033;-74
2022/06/13 08:19:54;;;;;;;5.70;3.28;;;26.30;94.40;;;;;;5026838;28;20569;-73
2022/06/13 08:22:20;;;;;;;8.27;3.90;;;26.50;94.60;;;;;;5025904;28;20096;-73
2022/06/13 08:24:45;;;;;;;6.00;3.33;;;26.30;94.60;;;;;;5026251;28;20472;-73
2022/06/13 08:27:11;;;;;;;4.57;3.33;;;26.30;94.00;;;;;;5024652;28;20060;-74
2022/06/13 08:29:37;;;;;;;5.03;3.60;;;26.30;94.30;;;;;;5026234;28;20033;-74
2022/06/13 08:32:03;;;;;;;4.82;3.22;;;26.30;94.10;;;;;;5024330;28;20049;-74
2022/06/13 08:34:30;;;;;;;7.20;3.67;;;26.10;93.90;;;;;;5025610;28;20041;-74
2022/06/13 08:36:56;;;;;;;5.22;3.20;;;26.10;94.70;;;;;;5022828;28;20043;-74
2022/06/13 08:39:22;;;;;;;5.22;3.00;;;26.00;94.40;;;;;;5026246;28;20037;-73
2022/06/13 08:42:22;;;;;;;4.25;2.95;;;26.20;93.70;;;;;;5025754;28;20546;-73
2022/06/13 08:45:09;;;;;;;6.28;2.78;;;25.90;93.80;;;;;;5026109;28;20593;-74
2022/06/13 08:48:17;;;;;;;7.43;3.05;;;25.90;93.60;;;;;;5022981;28;20045;-73
2022/06/13 08:50:47;;;;;;;6.35;3.15;;;25.80;93.30;;;;;;5002951;28;20115;-73
2022/06/13 08:53:23;;;;;;;5.40;2.92;;;25.90;94.10;;;;;;5026087;28;20072;-74
2022/06/13 08:55:54;;;;;;;6.63;3.28;;;25.90;93.70;;;;;;5025155;28;21185;-74
2022/06/13 08:58:26;;;;;;;6.78;2.80;;;25.90;94.10;;;;;;5023311;28;20025;-73
2022/06/13 09:01:10;;;;;;;5.38;2.60;;;25.90;93.50;;;;;;5023661;28;20033;-74
2022/06/13 09:03:44;;;;;;;4.28;2.63;;;25.70;92.80;;;;;;5025019;28;20061;-73
2022/06/13 09:06:21;;;;;;;3.53;2.30;;;26.10;93.20;;;;;;5023124;28;20108;-73
2022/06/13 09:09:06;;;;;;;9.35;2.47;;;26.20;92.70;;;;;;5020654;28;20040;-73
2022/06/13 09:11:54;;;;;;;5.32;2.78;;;26.50;93.50;;;;;;5023773;28;20057;-73
2022/06/13 09:14:47;;;;;;;4.05;2.53;;;26.60;92.20;;;;;;5025084;28;20040;-73
2022/06/13 09:17:25;;;;;;;3.75;2.58;;;26.60;92.40;;;;;;5024223;28;20034;-73
2022/06/13 09:20:02;;;;;;;4.68;2.58;;;27.10;92.20;;;;;;5024034;28;20033;-74
2022/06/13 09:22:36;;;;;;;4.88;2.10;;;26.40;92.10;;;;;;5023151;28;20044;-73
2022/06/13 09:25:10;;;;;;;6.13;2.35;;;27.10;92.80;;;;;;5023012;28;20439;-74
2022/06/13 09:27:46;;;;;;;4.72;2.45;;;27.50;92.40;;;;;;5025159;28;20033;-74
2022/06/13 09:30:16;;;;;;;4.05;2.30;;;27.60;92.30;;;;;;5024137;28;20345;-74
2022/06/13 09:32:55;;;;;;;4.57;3.05;;;27.50;91.80;;;;;;5014733;28;20052;-73
2022/06/13 09:35:52;;;;;;;6.22;2.70;;;27.60;93.00;;;;;;5025134;28;20033;-73
2022/06/13 09:38:39;;;;;;;6.90;2.50;;;27.90;91.60;;;;;;5020855;28;20534;-74
2022/06/13 09:41:57;;;;;;;5.93;2.45;;;27.30;92.10;;;;;;5022834;28;20061;-73
2022/06/13 09:44:44;;;;;;;5.13;2.72;;;26.70;92.50;;;;;;5019719;28;20041;-74
2022/06/13 09:47:43;;;;;;;3.55;2.22;;;26.10;93.00;;;;;;5024187;28;20049;-73
2022/06/13 09:50:25;;;;;;;4.05;2.40;;;25.30;93.00;;;;;;5023714;28;20094;-73
2022/06/13 09:53:07;;;;;;;4.28;2.47;;;24.80;93.30;;;;;;5021833;28;20597;-76
2022/06/13 09:56:09;;;;;;;4.07;2.28;;;24.70;93.80;;;;;;5018192;28;20025;-73
2022/06/13 09:58:50;;;;;;;5.30;2.33;;;24.50;94.30;;;;;;5011297;28;20045;-74
2022/06/13 10:01:36;;;;;;;4.22;1.92;;;24.50;94.30;;;;;;5023130;28;20045;-74
2022/06/13 10:04:10;;;;;;;4.75;3.08;;;24.20;94.20;;;;;;5021444;28;20136;-75
2022/06/13 10:06:52;;;;;;;4.63;2.45;;;24.30;94.80;;;;;;5011537;28;20245;-76
2022/06/13 10:09:52;;;;;;;4.30;2.55;;;24.20;93.90;;;;;;5016725;28;20033;-74
2022/06/13 10:12:29;;;;;;;4.57;2.53;;;24.10;94.80;;;;;;5020419;28;20037;-73
2022/06/13 10:15:23;;;;;;;6.82;2.10;;;24.40;94.20;;;;;;5017874;28;20067;-72
2022/06/13 10:17:55;;;;;;;16.15;4.75;;;24.30;95.20;;;;;;5020973;28;20033;-72
2022/06/13 10:20:33;;;;;;;13.85;5.03;;;24.20;97.90;;;;;;5023113;28;20171;-75
2022/06/13 10:23:05;;;;;;;11.50;4.32;;;23.20;99.90;;;;;;5019720;28;20459;-74
2022/06/13 10:25:52;;;;;;;10.30;5.45;;;23.00;99.90;;;;;;5022698;28;20026;-74
2022/06/13 10:28:17;;;;;;;9.63;4.15;;;22.50;99.90;;;;;;5023809;28;20033;-74
2022/06/13 10:31:07;;;;;;;7.05;3.78;;;21.80;99.90;;;;;;5020463;28;20503;-74
2022/06/13 10:33:45;;;;;;;7.13;3.53;;;21.10;99.90;;;;;;5020984;28;20029;-75
2022/06/13 10:36:37;;;;;;;5.82;3.40;;;21.40;99.90;;;;;;5021963;28;20037;-75
2022/06/13 10:39:02;;;;;;;6.53;4.07;;;21.60;99.90;;;;;;5022791;28;20057;-76
2022/06/13 10:41:30;;;;;;;8.30;3.60;;;21.80;99.90;;;;;;5023502;28;20060;-76
2022/06/13 10:43:57;;;;;;;7.03;3.97;;;22.00;99.90;;;;;;5021100;28;20103;-74
2022/06/13 10:46:23;;;;;;;6.70;3.72;;;22.00;99.90;;;;;;5023596;28;20057;-74
2022/06/13 10:49:24;;;;;;;5.65;3.47;;;22.10;99.90;;;;;;5021771;28;20080;-74
2022/06/13 10:51:51;;;;;;;5.10;3.35;;;22.20;99.90;;;;;;5020960;28;20400;-73
2022/06/13 10:54:23;;;;;;;5.28;3.42;;;22.20;99.90;;;;;;5019464;28;20037;-74
2022/06/13 10:56:59;;;;;;;6.47;4.10;;;22.10;99.90;;;;;;5021217;28;20037;-74
2022/06/13 10:59:28;;;;;;;7.97;3.92;;;22.30;99.90;;;;;;5021135;28;20541;-75
2022/06/13 11:02:00;;;;;;;5.05;3.25;;;22.20;99.90;;;;;;5023728;28;20109;-74
2022/06/13 11:04:32;;;;;;;6.20;4.15;;;22.10;99.90;;;;;;5021077;28;20065;-76
2022/06/13 11:07:02;;;;;;;6.97;4.22;;;22.10;99.90;;;;;;5022960;28;20037;-76
2022/06/13 11:09:44;;;;;;;7.38;4.10;;;22.30;99.90;;;;;;5021613;28;20372;-74
2022/06/13 11:12:31;;;;;;;4.85;3.60;;;22.30;99.90;;;;;;5022524;28;20049;-74
2022/06/13 11:23:27;;;;;;;4.72;3.83;;;22.50;99.90;;;;;;5018051;28;20049;-73
2022/06/13 11:25:57;;;;;;;5.15;3.55;;;22.80;99.90;;;;;;5016124;28;20044;-73
2022/06/13 11:28:27;;;;;;;5.95;3.92;;;23.00;99.90;;;;;;5023276;28;20037;-74
2022/06/13 11:31:14;;;;;;;4.78;3.63;;;23.40;99.90;;;;;;5020999;28;20072;-74
2022/06/13 11:33:40;;;;;;;6.03;3.35;;;23.40;99.90;;;;;;5023660;28;20045;-74
2022/06/13 11:36:12;;;;;;;5.78;3.55;;;23.90;99.90;;;;;;5023820;28;20516;-73
2022/06/13 11:38:51;;;;;;;6.03;3.05;;;24.70;99.90;;;;;;5017795;28;20041;-73
2022/06/13 11:41:23;;;;;;;5.40;2.90;;;25.20;99.90;;;;;;5025012;28;20151;-73
2022/06/13 11:43:59;;;;;;;4.72;2.95;;;25.50;99.90;;;;;;5026766;28;20113;-73
2022/06/13 11:46:27;;;;;;;7.00;2.70;;;25.70;99.90;;;;;;5027014;28;20040;-73
2022/06/13 11:48:55;;;;;;;4.32;3.03;;;25.70;98.40;;;;;;5027157;28;20053;-74
2022/06/13 11:51:24;;;;;;;4.93;2.80;;;25.90;99.90;;;;;;5020785;28;20045;-73
2022/06/13 11:53:52;;;;;;;4.05;2.50;;;26.10;99.90;;;;;;5025445;28;20124;-73
2022/06/13 11:56:31;;;;;;;5.75;3.05;;;26.40;99.70;;;;;;5024772;28;20349;-73
2022/06/13 11:59:01;;;;;;;4.50;3.30;;;26.30;99.90;;;;;;5025767;28;20899;-73
2022/06/13 12:01:35;;;;;;;6.57;3.80;;;26.30;99.90;;;;;;5025382;28;20029;-73
2022/06/13 12:04:16;;;;;;;3.97;3.08;;;26.20;99.90;;;;;;5025796;28;20026;-73
2022/06/13 12:06:46;;;;;;;8.80;3.55;;;26.40;99.70;;;;;;5022247;28;20025;-75
2022/06/13 12:09:23;;;;;;;3.70;2.78;;;26.60;99.10;;;;;;5025391;28;20502;-73
2022/06/13 12:12:07;;;;;;;4.68;3.03;;;26.60;98.40;;;;;;5025125;28;20068;-73
2022/06/13 12:14:39;;;;;;;5.03;3.42;;;26.60;98.00;;;;;;5025679;28;20029;-74
2022/06/13 12:17:07;;;;;;;8.35;3.60;;;26.80;98.10;;;;;;5024339;28;20048;-74
2022/06/13 12:20:18;;;;;;;6.85;3.65;;;27.10;97.90;;;;;;5026052;28;20044;-74
2022/06/13 12:22:51;;;;;;;4.07;2.80;;;27.20;97.60;;;;;;5005914;28;20136;-74
2022/06/13 12:25:29;;;;;;;5.45;3.58;;;27.20;96.70;;;;;;5018120;28;20040;-74
2022/06/13 12:28:17;;;;;;;6.13;2.83;;;27.10;97.70;;;;;;5017559;28;20152;-75
2022/06/13 12:30:57;;;;;;;4.38;3.05;;;26.80;96.60;;;;;;5019758;28;20072;-75
2022/06/13 12:33:38;;;;;;;6.43;3.78;;;26.80;97.60;;;;;;5013444;28;20492;-75
2022/06/13 12:36:41;;;;;;;6.95;3.00;;;26.90;97.40;;;;;;5023464;28;20034;-74
2022/06/13 12:39:31;;;;;;;5.30;3.05;;;26.90;97.30;;;;;;5025885;28;20091;-79
2022/06/13 12:42:10;;;;;;;4.47;2.85;;;27.00;97.00;;;;;;5025070;28;20049;-74
2022/06/13 12:45:21;;;;;;;4.32;2.53;;;27.20;95.70;;;;;;5025576;28;20029;-76
2022/06/13 12:48:04;;;;;;;5.10;3.22;;;27.30;96.50;;;;;;5015666;28;20033;-76
2022/06/13 12:50:48;;;;;;;7.20;3.22;;;27.40;97.10;;;;;;5021671;28;20099;-76
2022/06/13 12:53:19;;;;;;;;;;;27.10;95.80;;;;;;5016821;28;20033;-76
2022/06/13 12:55:50;;;;;;;5.38;2.60;;;27.40;96.30;;;;;;5024807;28;19913;-75
2022/06/13 12:58:20;;;;;;;4.45;2.90;;;27.50;94.50;;;;;;5015861;28;20068;-75
2022/06/13 13:00:51;;;;;;;5.95;2.80;;;27.50;94.60;;;;;;5024483;28;20037;-76
2022/06/13 13:03:24;;;;;;;4.63;2.80;;;27.90;94.20;;;;;;5018276;28;20057;-74
2022/06/13 13:06:08;;;;;;;5.00;2.60;;;28.50;93.80;;;;;;5024898;28;20046;-75
2022/06/13 13:08:55;;;;;;;3.78;2.22;;;28.50;93.30;;;;;;5025619;28;20025;-75
2022/06/13 13:11:39;;;;;;;7.43;2.50;;;28.40;92.90;;;;;;5024072;28;20614;-76
2022/06/13 13:14:30;;;;;;;4.93;2.85;;;28.20;93.60;;;;;;5022084;28;20033;-75
2022/06/13 13:17:34;;;;;;;6.47;3.00;;;28.10;94.30;;;;;;5024766;28;20033;-75
2022/06/13 13:20:20;;;;;;;4.20;2.88;;;27.80;94.40;;;;;;4979103;28;20600;-75
2022/06/13 13:23:00;;;;;;;5.60;2.90;;;27.60;94.30;;;;;;4982818;28;20062;-78
2022/06/13 13:25:50;;;;;;;3.70;2.70;;;27.40;95.00;;;;;;5012453;28;20041;-75
2022/06/13 13:28:31;;;;;;;5.25;2.78;;;27.50;93.90;;;;;;5012180;28;20091;-75
2022/06/13 13:31:04;;;;;;;6.32;2.58;;;27.60;94.60;;;;;;5021014;28;20140;-75
2022/06/13 13:34:11;;;;;;;5.03;2.60;;;27.50;94.60;;;;;;5024631;28;20089;-75
2022/06/13 13:36:50;;;;;;;4.88;2.60;;;27.50;94.50;;;;;;5025236;28;20037;-75
2022/06/13 13:39:45;;;;;;;4.65;2.65;;;27.40;94.20;;;;;;5022997;28;20164;-75
2022/06/13 13:42:34;;;;;;;9.43;3.90;;;27.30;94.70;;;;;;5008252;28;20037;-75
2022/06/13 13:45:23;;;;;;;4.80;2.85;;;27.10;94.30;;;;;;5024797;28;20032;-76